Time,TemperatureF,DewpointF,PressureIn,WindDirection,WindDirectionDegrees,WindSpeedMPH,WindSpeedGustMPH,Humidity,HourlyPrecipIn,Conditions,Clouds,dailyrainin,SoftwareType,DateUTC
2013-02-03 00:06:00,41.9,29.8,29.94,SW,228,0.0,1.0,62,0.00,,,0.00,LWC V2.00 B2112,2013-02-03 05:06:00,
2013-02-03 00:11:00,41.8,30.1,29.93,WNW,296,0.0,0.0,63,0.00,,,0.00,LWC V2.00 B2112,2013-02-03 05:11:00,
2013-02-03 00:16:00,41.6,30.0,29.93,East,81,0.0,0.0,63,0.00,,,0.00,LWC V2.00 B2112,2013-02-03 05:16:00,
2013-02-03 00:20:00,41.6,29.9,29.93,WSW,241,0.0,0.0,63,0.00,,,0.00,LWC V2.00 B2112,2013-02-03 05:20:00,
2013-02-03 00:21:00,41.6,30.3,29.93,WSW,243,0.0,1.0,64,0.00,,,0.00,LWC V2.00 B2112,2013-02-03 05:21:00,
2013-02-03 00:30:00,41.5,31.0,29.91,North,0,0.0,0.0,66,0.00,,,0.00,LWC V2.00 B2112,2013-02-03 05:30:00,
2013-02-03 00:40:00,41.1,31.4,29.90,North,0,0.0,0.0,68,0.00,,,0.00,LWC V2.00 B2112,2013-02-03 05:40:00,
2013-02-03 00:50:00,40.8,31.8,29.90,North,0,0.0,0.0,70,0.00,,,0.00,LWC V2.00 B2112,2013-02-03 05:50:00,
2013-02-03 01:00:00,40.5,32.2,29.90,North,0,0.0,0.0,72,0.00,,,0.00,LWC V2.00 B2112,2013-02-03 06:00:00,
2013-02-03 01:10:00,40.2,32.3,29.89,North,0,0.0,0.0,73,0.00,,,0.00,LWC V2.00 B2112,2013-02-03 06:10:00,
2013-02-03 01:20:00,40.1,32.5,29.89,North,0,0.0,0.0,74,0.00,,,0.00,LWC V2.00 B2112,2013-02-03 06:20:00,
2013-02-03 01:30:00,39.9,32.3,29.89,North,0,0.0,0.0,74,0.00,,,0.00,LWC V2.00 B2112,2013-02-03 06:30:00,
2013-02-03 01:40:00,39.8,32.5,29.88,North,0,0.0,0.0,75,0.00,,,0.00,LWC V2.00 B2112,2013-02-03 06:40:00,
2013-02-03 01:50:00,39.6,32.7,29.87,North,0,0.0,0.0,76,0.00,,,0.00,LWC V2.00 B2112,2013-02-03 06:50:00,
2013-02-03 02:00:00,39.5,32.9,29.87,North,0,0.0,0.0,77,0.00,,,0.00,LWC V2.00 B2112,2013-02-03 07:00:00,
2013-02-03 02:10:00,39.3,33.0,29.87,North,0,0.0,0.0,78,0.00,,,0.00,LWC V2.00 B2112,2013-02-03 07:10:00,
2013-02-03 02:20:00,39.1,32.8,29.87,North,0,0.0,0.0,78,0.00,,,0.00,LWC V2.00 B2112,2013-02-03 07:20:00,
2013-02-03 02:30:00,38.5,32.6,29.87,North,0,0.0,0.0,79,0.00,,,0.00,LWC V2.00 B2112,2013-02-03 07:30:00,
2013-02-03 02:40:00,38.2,32.3,29.88,North,0,0.0,0.0,79,0.00,,,0.00,LWC V2.00 B2112,2013-02-03 07:40:00,
2013-02-03 02:50:00,37.6,32.3,29.88,North,0,0.0,0.0,81,0.00,,,0.00,LWC V2.00 B2112,2013-02-03 07:50:00,
2013-02-03 03:00:00,37.5,32.5,29.87,North,0,0.0,0.0,82,0.00,,,0.00,LWC V2.00 B2112,2013-02-03 08:00:00,
2013-02-03 03:10:00,37.2,32.5,29.86,North,0,0.0,0.0,83,0.00,,,0.00,LWC V2.00 B2112,2013-02-03 08:10:00,
2013-02-03 03:20:00,36.9,32.2,29.86,North,0,0.0,0.0,83,0.00,,,0.00,LWC V2.00 B2112,2013-02-03 08:20:00,
2013-02-03 03:30:00,36.8,32.4,29.85,North,0,0.0,0.0,84,0.00,,,0.00,LWC V2.00 B2112,2013-02-03 08:30:00,
2013-02-03 03:40:00,36.3,31.9,29.85,North,0,0.0,0.0,84,0.00,,,0.00,LWC V2.00 B2112,2013-02-03 08:40:00,
2013-02-03 03:50:00,35.8,31.7,29.85,North,0,0.0,0.0,85,0.00,,,0.00,LWC V2.00 B2112,2013-02-03 08:50:00,
2013-02-03 04:00:00,35.2,31.2,29.84,North,0,0.0,0.0,85,0.00,,,0.00,LWC V2.00 B2112,2013-02-03 09:00:00,
2013-02-03 04:10:00,34.4,30.6,29.84,North,0,0.0,0.0,86,0.00,,,0.00,LWC V2.00 B2112,2013-02-03 09:10:00,
2013-02-03 04:20:00,34.0,30.5,29.84,North,0,0.0,0.0,87,0.00,,,0.00,LWC V2.00 B2112,2013-02-03 09:20:00,
2013-02-03 04:30:00,33.7,30.5,29.84,North,0,0.0,0.0,88,0.00,,,0.00,LWC V2.00 B2112,2013-02-03 09:30:00,
2013-02-03 04:40:00,33.5,30.9,29.84,North,0,0.0,0.0,90,0.00,,,0.00,LWC V2.00 B2112,2013-02-03 09:40:00,
2013-02-03 04:50:00,33.7,31.4,29.84,North,0,0.0,0.0,91,0.00,,,0.00,LWC V2.00 B2112,2013-02-03 09:50:00,
2013-02-03 05:00:00,33.8,31.7,29.84,North,0,0.0,0.0,92,0.00,,,0.00,LWC V2.00 B2112,2013-02-03 10:00:00,
2013-02-03 05:10:00,34.1,32.0,29.83,North,0,0.0,0.0,92,0.00,,,0.00,LWC V2.00 B2112,2013-02-03 10:10:00,
2013-02-03 05:20:00,34.4,32.6,29.83,North,0,0.0,0.0,93,0.00,,,0.00,LWC V2.00 B2112,2013-02-03 10:20:00,
2013-02-03 05:30:00,34.7,32.6,29.83,North,0,0.0,0.0,92,0.00,,,0.00,LWC V2.00 B2112,2013-02-03 10:30:00,
2013-02-03 05:40:00,35.0,32.9,29.83,North,0,0.0,0.0,92,0.00,,,0.00,LWC V2.00 B2112,2013-02-03 10:40:00,
2013-02-03 05:50:00,35.3,33.2,29.83,North,0,0.0,0.0,92,0.00,,,0.00,LWC V2.00 B2112,2013-02-03 10:50:00,
2013-02-03 06:00:00,35.5,33.4,29.84,North,0,0.0,0.0,92,0.00,,,0.00,LWC V2.00 B2112,2013-02-03 11:00:00,
2013-02-03 06:10:00,35.6,33.5,29.83,North,0,0.0,0.0,92,0.00,,,0.00,LWC V2.00 B2112,2013-02-03 11:10:00,
2013-02-03 06:20:00,35.8,33.7,29.83,North,0,0.0,0.0,92,0.00,,,0.00,LWC V2.00 B2112,2013-02-03 11:20:00,
2013-02-03 06:30:00,35.8,33.7,29.83,North,0,0.0,0.0,92,0.00,,,0.00,LWC V2.00 B2112,2013-02-03 11:30:00,
2013-02-03 06:40:00,35.8,33.7,29.83,North,0,0.0,0.0,92,0.00,,,0.00,LWC V2.00 B2112,2013-02-03 11:40:00,
2013-02-03 06:50:00,35.8,33.7,29.83,North,0,0.0,0.0,92,0.00,,,0.00,LWC V2.00 B2112,2013-02-03 11:50:00,
2013-02-03 07:00:00,35.6,33.5,29.84,North,0,0.0,0.0,92,0.00,,,0.00,LWC V2.00 B2112,2013-02-03 12:00:00,
2013-02-03 07:10:00,35.8,33.7,29.84,North,0,0.0,0.0,92,0.00,,,0.00,LWC V2.00 B2112,2013-02-03 12:10:00,
2013-02-03 07:20:00,35.9,33.8,29.84,North,0,0.0,0.0,92,0.00,,,0.00,LWC V2.00 B2112,2013-02-03 12:20:00,
2013-02-03 07:30:00,36.0,33.9,29.85,North,0,0.0,0.0,92,0.00,,,0.00,LWC V2.00 B2112,2013-02-03 12:30:00,
2013-02-03 07:40:00,36.2,34.1,29.85,North,0,0.0,0.0,92,0.00,,,0.00,LWC V2.00 B2112,2013-02-03 12:40:00,
2013-02-03 07:50:00,36.3,33.9,29.85,North,0,0.0,0.0,91,0.00,,,0.00,LWC V2.00 B2112,2013-02-03 12:50:00,
2013-02-03 08:00:00,36.6,33.9,29.85,North,0,0.0,0.0,90,0.00,,,0.00,LWC V2.00 B2112,2013-02-03 13:00:00,
2013-02-03 08:10:00,36.9,34.0,29.85,North,0,0.0,0.0,89,0.00,,,0.00,LWC V2.00 B2112,2013-02-03 13:10:00,
2013-02-03 08:20:00,37.2,33.4,29.85,North,0,0.0,0.0,86,0.00,,,0.00,LWC V2.00 B2112,2013-02-03 13:20:00,
2013-02-03 08:30:00,37.6,33.2,29.86,North,0,0.0,0.0,84,0.00,,,0.00,LWC V2.00 B2112,2013-02-03 13:30:00,
2013-02-03 08:40:00,37.8,33.1,29.85,North,0,0.0,0.0,83,0.00,,,0.00,LWC V2.00 B2112,2013-02-03 13:40:00,
2013-02-03 08:50:00,38.5,32.9,29.85,SW,225,0.0,1.0,80,0.00,,,0.00,LWC V2.00 B2112,2013-02-03 13:50:00,
2013-02-03 09:00:00,39.2,31.6,29.85,West,270,0.0,1.0,74,0.00,,,0.00,LWC V2.00 B2112,2013-02-03 14:00:00,
2013-02-03 09:10:00,40.2,30.8,29.85,NW,315,0.0,4.0,69,0.00,,,0.00,LWC V2.00 B2112,2013-02-03 14:10:00,
2013-02-03 09:20:00,40.8,30.3,29.85,WNW,292,0.0,3.0,66,0.00,,,0.00,LWC V2.00 B2112,2013-02-03 14:20:00,
2013-02-03 09:30:00,41.6,30.7,29.85,West,270,0.0,6.0,65,0.00,,,0.00,LWC V2.00 B2112,2013-02-03 14:30:00,
2013-02-03 09:40:00,41.9,29.8,29.85,WSW,248,1.0,7.0,62,0.00,,,0.00,LWC V2.00 B2112,2013-02-03 14:40:00,
2013-02-03 09:50:00,42.2,29.3,29.85,West,270,1.0,5.0,60,0.00,,,0.00,LWC V2.00 B2112,2013-02-03 14:50:00,
2013-02-03 10:00:00,42.9,30.0,29.85,NW,315,0.0,1.0,60,0.00,,,0.00,LWC V2.00 B2112,2013-02-03 15:00:00,
2013-02-03 10:10:00,43.6,28.5,29.85,West,270,1.0,5.0,55,0.00,,,0.00,LWC V2.00 B2112,2013-02-03 15:10:00,
2013-02-03 10:20:00,43.8,27.8,29.85,WSW,248,0.0,4.0,53,0.00,,,0.00,LWC V2.00 B2112,2013-02-03 15:20:00,
2013-02-03 10:30:00,43.3,25.4,29.85,WNW,292,2.0,6.0,49,0.00,,,0.00,LWC V2.00 B2112,2013-02-03 15:30:00,
2013-02-03 10:40:00,43.2,25.3,29.84,NW,315,1.0,7.0,49,0.00,,,0.00,LWC V2.00 B2112,2013-02-03 15:40:00,
2013-02-03 10:50:00,43.3,24.9,29.84,WNW,292,1.0,15.0,48,0.00,,,0.00,LWC V2.00 B2112,2013-02-03 15:50:00,
2013-02-03 11:00:00,43.1,24.3,29.84,WNW,292,0.0,2.0,47,0.00,,,0.00,LWC V2.00 B2112,2013-02-03 16:00:00,
2013-02-03 11:10:00,43.9,24.5,29.83,North,0,0.0,4.0,46,0.00,,,0.00,LWC V2.00 B2112,2013-02-03 16:10:00,
2013-02-03 11:20:00,44.2,24.7,29.83,South,180,0.0,2.0,46,0.00,,,0.00,LWC V2.00 B2112,2013-02-03 16:20:00,
2013-02-03 11:30:00,44.8,24.8,29.83,West,270,1.0,5.0,45,0.00,,,0.00,LWC V2.00 B2112,2013-02-03 16:30:00,
2013-02-03 11:40:00,44.9,23.8,29.82,NW,315,0.0,4.0,43,0.00,,,0.00,LWC V2.00 B2112,2013-02-03 16:40:00,
2013-02-03 11:50:00,46.1,24.3,29.82,SW,225,0.0,5.0,42,0.00,,,0.00,LWC V2.00 B2112,2013-02-03 16:50:00,
2013-02-03 12:00:00,45.1,22.8,29.82,North,0,1.0,5.0,41,0.00,,,0.00,LWC V2.00 B2112,2013-02-03 17:00:00,
2013-02-03 12:10:00,46.0,24.2,29.81,NNE,22,0.0,2.0,42,0.00,,,0.00,LWC V2.00 B2112,2013-02-03 17:10:00,
2013-02-03 12:20:00,45.7,22.2,29.81,NW,315,0.0,2.0,39,0.00,,,0.00,LWC V2.00 B2112,2013-02-03 17:20:00,
2013-02-03 12:30:00,45.2,22.3,29.81,North,0,0.0,3.0,40,0.00,,,0.00,LWC V2.00 B2112,2013-02-03 17:30:00,
2013-02-03 12:40:00,46.4,23.4,29.80,West,270,1.0,7.0,40,0.00,,,0.00,LWC V2.00 B2112,2013-02-03 17:40:00,
2013-02-03 12:50:00,47.0,25.1,29.80,North,0,0.0,0.0,42,0.00,,,0.00,LWC V2.00 B2112,2013-02-03 17:50:00,
2013-02-03 13:00:00,47.7,22.7,29.79,WNW,292,0.0,1.0,37,0.00,,,0.00,LWC V2.00 B2112,2013-02-03 18:00:00,
2013-02-03 13:10:00,47.3,23.0,29.78,WNW,292,0.0,5.0,38,0.00,,,0.00,LWC V2.00 B2112,2013-02-03 18:10:00,
2013-02-03 13:20:00,47.4,24.3,29.78,NNE,22,0.0,1.0,40,0.00,,,0.00,LWC V2.00 B2112,2013-02-03 18:20:00,
2013-02-03 13:30:00,46.7,23.7,29.77,North,0,0.0,4.0,40,0.00,,,0.00,LWC V2.00 B2112,2013-02-03 18:30:00,
2013-02-03 13:40:00,46.5,22.3,29.77,West,270,1.0,14.0,38,0.00,,,0.00,LWC V2.00 B2112,2013-02-03 18:40:00,
2013-02-03 13:50:00,46.2,23.8,29.77,North,0,0.0,1.0,41,0.00,,,0.00,LWC V2.00 B2112,2013-02-03 18:50:00,
2013-02-03 14:00:00,46.8,23.2,29.77,WSW,248,0.0,3.0,39,0.00,,,0.00,LWC V2.00 B2112,2013-02-03 19:00:00,
2013-02-03 14:10:00,47.4,24.3,29.76,SW,225,0.0,5.0,40,0.00,,,0.00,LWC V2.00 B2112,2013-02-03 19:10:00,
2013-02-03 14:20:00,47.1,24.0,29.76,WSW,248,0.0,7.0,40,0.00,,,0.00,LWC V2.00 B2112,2013-02-03 19:20:00,
2013-02-03 14:30:00,46.1,24.3,29.76,North,0,0.0,4.0,42,0.00,,,0.00,LWC V2.00 B2112,2013-02-03 19:30:00,
2013-02-03 14:40:00,46.4,24.6,29.76,SW,225,0.0,2.0,42,0.00,,,0.00,LWC V2.00 B2112,2013-02-03 19:40:00,
2013-02-03 14:50:00,47.3,24.8,29.76,WSW,248,0.0,2.0,41,0.00,,,0.00,LWC V2.00 B2112,2013-02-03 19:50:00,
2013-02-03 15:00:00,46.5,24.7,29.76,West,270,0.0,3.0,42,0.00,,,0.00,LWC V2.00 B2112,2013-02-03 20:00:00,
2013-02-03 15:10:00,46.2,24.9,29.77,West,270,0.0,2.0,43,0.00,,,0.00,LWC V2.00 B2112,2013-02-03 20:10:00,
2013-02-03 15:20:00,45.8,25.1,29.77,North,0,0.0,0.0,44,0.00,,,0.00,LWC V2.00 B2112,2013-02-03 20:20:00,
2013-02-03 15:30:00,45.5,25.4,29.77,West,270,0.0,4.0,45,0.00,,,0.00,LWC V2.00 B2112,2013-02-03 20:30:00,
2013-02-03 15:40:00,45.7,25.6,29.77,North,0,0.0,0.0,45,0.00,,,0.00,LWC V2.00 B2112,2013-02-03 20:40:00,
2013-02-03 15:50:00,45.8,25.7,29.77,SSW,202,0.0,3.0,45,0.00,,,0.00,LWC V2.00 B2112,2013-02-03 20:50:00,
2013-02-03 16:00:00,46.0,25.3,29.77,North,0,0.0,0.0,44,0.00,,,0.00,LWC V2.00 B2112,2013-02-03 21:00:00,
2013-02-03 16:10:00,46.2,25.5,29.77,SW,225,0.0,2.0,44,0.00,,,0.00,LWC V2.00 B2112,2013-02-03 21:10:00,
2013-02-03 16:20:00,46.4,26.8,29.77,North,0,0.0,0.0,46,0.00,,,0.00,LWC V2.00 B2112,2013-02-03 21:20:00,
2013-02-03 16:30:00,46.4,25.7,29.77,West,270,0.0,4.0,44,0.00,,,0.00,LWC V2.00 B2112,2013-02-03 21:30:00,
2013-02-03 16:40:00,46.2,26.6,29.78,SW,225,1.0,7.0,46,0.00,,,0.00,LWC V2.00 B2112,2013-02-03 21:40:00,
2013-02-03 16:50:00,46.0,26.9,29.78,SW,225,0.0,2.0,47,0.00,,,0.00,LWC V2.00 B2112,2013-02-03 21:50:00,
2013-02-03 17:00:00,45.7,27.1,29.78,WNW,292,0.0,2.0,48,0.00,,,0.00,LWC V2.00 B2112,2013-02-03 22:00:00,
2013-02-03 17:10:00,45.5,27.0,29.79,WSW,248,0.0,9.0,48,0.00,,,0.00,LWC V2.00 B2112,2013-02-03 22:10:00,
2013-02-03 17:20:00,45.1,27.1,29.79,North,0,0.0,0.0,49,0.00,,,0.00,LWC V2.00 B2112,2013-02-03 22:20:00,
2013-02-03 17:30:00,44.6,27.6,29.80,North,0,0.0,0.0,51,0.00,,,0.00,LWC V2.00 B2112,2013-02-03 22:30:00,
2013-02-03 17:40:00,43.8,29.6,29.81,North,0,0.0,0.0,57,0.00,,,0.00,LWC V2.00 B2112,2013-02-03 22:40:00,
2013-02-03 17:50:00,42.5,30.0,29.81,North,0,0.0,0.0,61,0.00,,,0.00,LWC V2.00 B2112,2013-02-03 22:50:00,
2013-02-03 18:00:00,41.9,30.6,29.82,North,0,0.0,0.0,64,0.00,,,0.00,LWC V2.00 B2112,2013-02-03 23:00:00,
2013-02-03 18:10:00,41.5,30.6,29.82,North,0,0.0,0.0,65,0.00,,,0.00,LWC V2.00 B2112,2013-02-03 23:10:00,
2013-02-03 18:20:00,41.1,30.2,29.82,North,0,0.0,0.0,65,0.00,,,0.00,LWC V2.00 B2112,2013-02-03 23:20:00,
2013-02-03 18:30:00,40.2,29.8,29.83,North,0,0.0,0.0,66,0.00,,,0.00,LWC V2.00 B2112,2013-02-03 23:30:00,
2013-02-03 18:40:00,39.2,29.9,29.84,North,0,0.0,0.0,69,0.00,,,0.00,LWC V2.00 B2112,2013-02-03 23:40:00,
2013-02-03 18:50:00,38.5,29.6,29.84,North,0,0.0,0.0,70,0.00,,,0.00,LWC V2.00 B2112,2013-02-03 23:50:00,
2013-02-03 19:00:00,37.8,29.6,29.85,North,0,0.0,0.0,72,0.00,,,0.00,LWC V2.00 B2112,2013-02-04 00:00:00,
2013-02-03 19:10:00,37.2,29.4,29.85,North,0,0.0,0.0,73,0.00,,,0.00,LWC V2.00 B2112,2013-02-04 00:10:00,
2013-02-03 19:20:00,37.2,29.0,29.85,North,0,0.0,0.0,72,0.00,,,0.00,LWC V2.00 B2112,2013-02-04 00:20:00,
2013-02-03 19:30:00,36.9,28.7,29.85,North,0,0.0,0.0,72,0.00,,,0.00,LWC V2.00 B2112,2013-02-04 00:30:00,
2013-02-03 19:40:00,36.6,28.1,29.86,North,0,0.0,0.0,71,0.00,,,0.00,LWC V2.00 B2112,2013-02-04 00:40:00,
2013-02-03 19:50:00,36.3,27.5,29.86,North,0,0.0,0.0,70,0.00,,,0.00,LWC V2.00 B2112,2013-02-04 00:50:00,
2013-02-03 20:00:00,35.9,27.1,29.87,North,0,0.0,0.0,70,0.00,,,0.00,LWC V2.00 B2112,2013-02-04 01:00:00,
2013-02-03 20:10:00,36.5,26.6,29.86,North,0,0.0,0.0,67,0.00,,,0.00,LWC V2.00 B2112,2013-02-04 01:10:00,
2013-02-03 20:20:00,36.2,26.3,29.86,North,0,0.0,0.0,67,0.00,,,0.00,LWC V2.00 B2112,2013-02-04 01:20:00,
2013-02-03 20:30:00,35.8,26.3,29.87,North,0,0.0,0.0,68,0.00,,,0.00,LWC V2.00 B2112,2013-02-04 01:30:00,
2013-02-03 20:40:00,35.5,25.6,29.87,North,0,0.0,0.0,67,0.00,,,0.00,LWC V2.00 B2112,2013-02-04 01:40:00,
2013-02-03 20:50:00,36.0,24.6,29.87,North,0,0.0,0.0,63,0.00,,,0.00,LWC V2.00 B2112,2013-02-04 01:50:00,
2013-02-03 21:00:00,36.5,24.4,29.87,North,0,0.0,0.0,61,0.00,,,0.00,LWC V2.00 B2112,2013-02-04 02:00:00,
2013-02-03 21:10:00,36.6,24.0,29.88,North,0,0.0,0.0,60,0.00,,,0.00,LWC V2.00 B2112,2013-02-04 02:10:00,
2013-02-03 21:20:00,36.5,23.6,29.88,North,0,0.0,0.0,59,0.00,,,0.00,LWC V2.00 B2112,2013-02-04 02:20:00,
2013-02-03 21:30:00,36.3,23.4,29.88,North,0,0.0,0.0,59,0.00,,,0.00,LWC V2.00 B2112,2013-02-04 02:30:00,
2013-02-03 21:40:00,36.0,23.9,29.88,North,0,0.0,0.0,61,0.00,,,0.00,LWC V2.00 B2112,2013-02-04 02:40:00,
2013-02-03 21:50:00,35.5,23.4,29.88,North,0,0.0,0.0,61,0.00,,,0.00,LWC V2.00 B2112,2013-02-04 02:50:00,
2013-02-03 22:00:00,35.3,23.2,29.87,WSW,248,0.0,2.0,61,0.00,,,0.00,LWC V2.00 B2112,2013-02-04 03:00:00,
2013-02-03 22:10:00,35.2,22.7,29.88,North,0,0.0,0.0,60,0.00,,,0.00,LWC V2.00 B2112,2013-02-04 03:10:00,
2013-02-03 22:20:00,34.9,22.8,29.88,North,0,0.0,0.0,61,0.00,,,0.00,LWC V2.00 B2112,2013-02-04 03:20:00,
2013-02-03 22:30:00,34.3,22.7,29.88,North,0,0.0,0.0,62,0.00,,,0.00,LWC V2.00 B2112,2013-02-04 03:30:00,
2013-02-03 22:40:00,34.4,22.4,29.88,SW,225,0.0,4.0,61,0.00,,,0.00,LWC V2.00 B2112,2013-02-04 03:40:00,
2013-02-03 22:50:00,34.9,22.4,29.88,North,0,0.0,0.0,60,0.00,,,0.00,LWC V2.00 B2112,2013-02-04 03:50:00,
2013-02-03 23:00:00,35.0,22.1,29.88,WNW,292,0.0,9.0,59,0.00,,,0.00,LWC V2.00 B2112,2013-02-04 04:00:00,
2013-02-03 23:10:00,36.2,22.4,29.89,WNW,292,0.0,1.0,57,0.00,,,0.00,LWC V2.00 B2112,2013-02-04 04:10:00,
2013-02-03 23:20:00,36.3,22.1,29.89,WNW,292,0.0,6.0,56,0.00,,,0.00,LWC V2.00 B2112,2013-02-04 04:20:00,
2013-02-03 23:30:00,36.0,22.3,29.89,WNW,292,0.0,1.0,57,0.00,,,0.00,LWC V2.00 B2112,2013-02-04 04:30:00,
2013-02-03 23:40:00,35.6,21.5,29.89,West,270,0.0,1.0,56,0.00,,,0.00,LWC V2.00 B2112,2013-02-04 04:40:00,
2013-02-03 23:50:00,35.3,22.0,29.89,North,0,0.0,0.0,58,0.00,,,0.00,LWC V2.00 B2112,2013-02-04 04:50:00,